Latest Coastal Weather Observations for Kingscote

IDS60701

Issued at 3:01 pm CST Sunday 31 July 2016 (issued every 10 minutes, with the page automatically refreshed every 10 minutes)

About coastal observations | Map of coastal stations | Coastal observations for SA | Marine services | Other Formats
Station Details ID: 022841 Name: KINGSCOTE AERO Lat: -35.71 Lon: 137.52 Height: 6.23 m
Data from the previous 72 hours. | See also: Recent months at Kingscote
Date/Time
CST
Temp
°C
Wind Pressure Rain since
9am
mm
Weather Cloud Vis
km
Sea
Height
m
Swell
Dir  Spd
kts
Gust
kts
hPa Trend Height
m
Period
s
Dir
31/03:00pm 15.8 NNW 12 16 1011.0 - 0.0 - - 10 - - - -
31/02:30pm 15.9 NNW 12 16 1011.1 - 0.0 - - 10 - - - -
31/02:00pm 15.7 NNW 12 17 1011.5 - 0.0 - Partly cloudy 10 - - - -
31/01:30pm 14.7 NNW 12 18 1012.0 - 0.0 - Partly cloudy 10 - - - -
31/01:00pm 14.6 N 11 15 1012.8 - 0.0 - Partly cloudy 10 - - - -
31/12:30pm 14.7 NNE 11 15 1013.2 - 0.0 - Partly cloudy 10 - - - -
31/12:00pm 14.5 N 11 17 1013.9 - 0.0 - Cloudy 10 - - - -
31/11:30am 15.1 N 10 17 1014.4 - 0.0 - Partly cloudy 10 - - - -
31/11:00am 14.9 N 10 14 1014.7 - 0.0 - Partly cloudy 10 - - - -
31/10:30am 14.1 N 8 11 1015.2 - 0.0 - Partly cloudy 10 - - - -
31/10:00am 12.4 NNE 4 6 1015.5 - 0.0 - Partly cloudy 10 - - - -
31/09:30am 9.0 CALM 0 0 1015.6 - 0.0 - Partly cloudy 10 - - - -
31/09:00am 8.4 CALM 0 0 1015.6 - 0.8 - Mostly clear 10 - - - -
31/08:30am 5.9 CALM 0 0 1015.7 - 0.8 - - 10 - - - -
31/08:00am 3.7 CALM 0 0 1015.5 - 0.8 - Partly cloudy 9 - - - -
31/07:55am 3.3 CALM 0 0 1015.5 - 0.8 - Partly cloudy 9 - - - -
31/07:30am 3.4 CALM 0 0 1015.5 - 0.8 - - 2 - - - -
31/07:13am 3.2 CALM 0 0 1015.6 - 0.8 - - 5 - - - -
31/07:00am 3.5 CALM 0 0 1015.5 - 0.8 - - 7 - - - -
31/06:56am 3.5 CALM 0 0 1015.5 - 0.8 - - 8 - - - -
31/06:30am 3.5 CALM 0 0 1015.2 - 0.8 - - 6 - - - -
31/06:00am 3.8 CALM 0 0 1015.2 - 0.8 - - 2 - - - -
31/05:30am 3.3 CALM 0 0 1014.9 - 0.8 - - 1 - - - -
31/05:11am 3.8 CALM 0 0 1015.0 - 0.8 - - 5 - - - -
31/05:00am 4.3 CALM 0 0 1015.0 - 0.8 - - - - - - -
31/04:30am 4.2 CALM 0 0 1015.1 - 0.6 - - 0.5 - - - -
31/04:00am 5.9 CALM 0 0 1015.2 - 0.6 - - 1 - - - -
31/03:30am 5.5 WSW 4 5 1015.2 - 0.6 - - 6 - - - -
31/03:21am 5.5 WNW 5 6 1015.3 - 0.6 - - 5 - - - -
31/03:20am 5.7 WNW 4 6 1015.3 - 0.6 - - 6 - - - -
31/03:00am 5.4 CALM 0 0 1015.2 - 0.6 - - 1 - - - -
31/02:30am 5.6 CALM 0 0 1015.2 - 0.6 - - 1 - - - -
31/02:00am 5.8 CALM 0 0 1015.3 - 0.6 - - 0.4 - - - -
31/01:30am 7.3 CALM 0 0 1015.2 - 0.6 - - 0.5 - - - -
31/01:02am 7.7 NW 3 4 1015.3 - 0.6 - - 4 - - - -
31/01:00am 8.7 NW 3 4 1015.4 - 0.6 - - 7 - - - -
31/12:40am 8.2 WSW 3 4 1015.5 - 0.6 - - 7 - - - -
31/12:30am 8.3 WSW 3 4 1015.5 - 0.6 - - 5 - - - -
31/12:21am 9.0 WSW 4 4 1015.6 - 0.6 - - 5 - - - -
31/12:00am 10.3 W 5 6 1015.6 - 0.6 - - 9 - - - -
 
Date/Time
CST
Temp
°C
Wind Pressure Rain since
9am
mm
Weather Cloud Vis
km
Sea
Height
m
Swell
Dir  Spd
kts
Gust
kts
hPa Trend Height
m
Period
s
Dir
30/11:30pm 10.7 WSW 6 8 1015.6 - 0.6 - - 10 - - - -
30/11:00pm 10.7 WSW 7 8 1015.3 - 0.6 - - 10 - - - -
30/10:30pm 12.0 SW 7 8 1015.2 - 0.6 - Partly cloudy 10 - - - -
30/10:00pm 12.0 CALM 0 3 1014.9 - 0.6 - Partly cloudy 10 - - - -
30/09:30pm 13.2 WNW 6 8 1014.7 - 0.6 - Partly cloudy 10 - - - -
30/09:00pm 11.7 W 5 7 1014.5 - 0.6 - Mostly clear 10 - - - -
30/08:30pm 12.8 NW 6 9 1014.2 - 0.6 - Partly cloudy 10 - - - -
30/08:00pm 12.9 WNW 7 10 1013.7 - 0.6 - Partly cloudy 10 - - - -
30/07:30pm 13.0 NW 9 13 1013.4 - 0.6 - - 10 - - - -
30/07:00pm 13.4 WNW 11 15 1013.1 - 0.6 - - 10 - - - -
30/06:30pm 14.0 NW 11 14 1012.8 - 0.6 - Partly cloudy 10 - - - -
30/06:00pm 13.8 NW 12 16 1012.6 - 0.6 - Partly cloudy 10 - - - -
30/05:30pm 14.0 NW 12 16 1012.3 - 0.6 - Partly cloudy 10 - - - -
30/05:00pm 14.0 NNW 13 17 1012.0 - 0.6 - Partly cloudy 10 - - - -
30/04:30pm 14.0 NW 14 20 1011.8 - 0.6 - Cloudy 10 - - - -
30/04:00pm 14.0 NW 13 22 1011.7 - 0.6 - Partly cloudy 10 - - - -
30/03:30pm 13.8 NW 13 20 1011.4 - 0.6 - Partly cloudy 10 - - - -
30/03:00pm 13.3 NW 14 18 1011.7 - 0.6 Rain Cloudy 10 - - - -
30/02:48pm 13.9 NW 15 25 1011.7 - 0.4 - Partly cloudy 10 - - - -
30/02:30pm 14.8 NW 14 19 1011.6 - 0.2 - Partly cloudy 10 - - - -
30/02:02pm 16.5 NW 15 25 1012.0 - 0.0 - Partly cloudy 10 - - - -
30/02:00pm 16.5 NW 16 25 1011.9 - 0.0 - Partly cloudy 10 - - - -
30/01:43pm 15.9 NNW 15 25 1011.8 - 0.0 - Partly cloudy 10 - - - -
30/01:30pm 15.2 NNW 13 20 1011.6 - 0.0 - Cloudy 10 - - - -
30/01:00pm 15.5 NNW 14 22 1011.8 - 0.0 - Partly cloudy 10 - - - -
30/12:30pm 15.9 NNW 16 27 1012.2 - 0.0 - Partly cloudy 10 - - - -
30/12:29pm 15.9 NNW 16 27 1012.2 - 0.0 - Partly cloudy 10 - - - -
30/12:00pm 15.0 NNW 14 20 1012.7 - 0.0 - Cloudy 10 - - - -
30/11:30am 14.9 NNW 13 20 1014.1 - 0.0 - Partly cloudy 10 - - - -
30/11:00am 14.7 NNW 14 21 1014.3 - 0.0 - - 10 - - - -
30/10:43am 14.2 NNW 15 25 1014.2 - 0.0 - - 10 - - - -
30/10:30am 14.4 NNW 12 21 1014.5 - 0.0 - - 10 - - - -
30/10:00am 14.1 N 7 15 1015.1 - 0.0 - - 10 - - - -
30/09:30am 13.6 NNW 9 15 1015.4 - 0.0 - - 10 - - - -
30/09:00am 13.1 N 7 13 1015.5 - 0.0 - Cloudy 10 - - - -
30/08:30am 12.8 N 9 13 1015.5 - 0.0 - - 10 - - - -
30/08:00am 12.9 N 9 14 1015.8 - 0.0 - Partly cloudy 10 - - - -
30/07:30am 12.6 N 9 14 1016.1 - 0.0 - - 10 - - - -
30/07:00am 12.0 N 9 13 1016.0 - 0.0 - - 10 - - - -
30/06:30am 12.0 N 10 15 1016.2 - 0.0 - - 10 - - - -
30/06:00am 12.4 N 7 12 1016.6 - 0.0 - Cloudy 10 - - - -
30/05:30am 12.4 N 7 11 1016.7 - 0.0 - - 10 - - - -
30/05:00am 11.7 N 5 9 1016.7 - 0.0 - - 10 - - - -
30/04:30am 11.4 NNE 7 9 1016.9 - 0.0 - - 10 - - - -
30/04:00am 10.9 NNE 4 5 1017.7 - 0.0 - - 10 - - - -
30/03:30am 11.1 NNE 6 7 1017.6 - 0.0 - - 10 - - - -
30/03:00am 11.2 N 7 9 1018.0 - 0.0 - Mostly cloudy 10 - - - -
30/02:30am 11.1 N 6 8 1018.6 - 0.0 - - 10 - - - -
30/02:00am 9.8 CALM 0 0 1019.0 - 0.0 - - 10 - - - -
30/01:30am 9.9 CALM 0 0 1019.6 - 0.0 - - 10 - - - -
30/01:00am 9.5 CALM 0 0 1019.9 - 0.0 - - 10 - - - -
30/12:30am 10.1 CALM 0 0 1020.3 - 0.0 - - 10 - - - -
30/12:00am 9.9 CALM 0 0 1020.7 - 0.0 - Mostly cloudy 10 - - - -
 
Date/Time
CST
Temp
°C
Wind Pressure Rain since
9am
mm
Weather Cloud Vis
km
Sea
Height
m
Swell
Dir  Spd
kts
Gust
kts
hPa Trend Height
m
Period
s
Dir
29/11:30pm 9.8 CALM 0 0 1021.1 - 0.0 - - 10 - - - -
29/11:00pm 8.8 CALM 0 0 1021.2 - 0.0 - - 10 - - - -
29/10:30pm 8.5 CALM 0 0 1021.5 - 0.0 - - 7 - - - -
29/10:24pm 8.8 CALM 0 0 1021.5 - 0.0 - - 9 - - - -
29/10:04pm 9.5 NNE 3 3 1021.7 - 0.0 - - 5 - - - -
29/10:00pm 9.8 NNE 3 4 1021.8 - 0.0 - - 10 - - - -
29/09:30pm 10.1 NE 3 4 1021.9 - 0.0 - - 10 - - - -
29/09:00pm 10.9 NNE 4 5 1021.8 - 0.0 - Mostly clear 10 - - - -
29/08:30pm 11.5 NNE 6 8 1021.9 - 0.0 - - 10 - - - -
29/08:00pm 11.7 NNE 6 8 1021.8 - 0.0 - - 10 - - - -
29/07:30pm 12.0 NNE 6 8 1021.9 - 0.0 - Partly cloudy 10 - - - -
29/07:00pm 12.5 NNE 7 8 1022.0 - 0.0 - Partly cloudy 10 - - - -
29/06:30pm 12.4 NNE 4 6 1022.0 - 0.0 - Partly cloudy 10 - - - -
29/06:00pm 12.9 N 4 6 1021.8 - 0.0 - Mostly cloudy 10 - - - -
29/05:30pm 13.3 N 4 5 1021.6 - 0.0 - Cloudy 10 - - - -
29/05:00pm 13.5 N 4 5 1021.4 - 0.0 - Cloudy 10 - - - -
29/04:30pm 13.9 NNW 4 6 1021.6 - 0.0 - Partly cloudy 10 - - - -
29/04:00pm 13.7 NNW 6 8 1021.6 - 0.0 - - 10 - - - -
29/03:30pm 14.7 NW 9 13 1021.7 - 0.0 - - 10 - - - -
29/03:00pm 14.5 NNW 9 12 1021.7 - 0.0 - Partly cloudy 10 - - - -
29/02:30pm 14.4 NNW 9 13 1022.0 - 0.0 - Partly cloudy 10 - - - -
29/02:00pm 15.1 NW 10 15 1022.3 - 0.0 - Partly cloudy 10 - - - -
29/01:30pm 14.2 NNW 10 12 1022.5 - 0.0 - - 10 - - - -
29/01:00pm 14.3 NW 10 13 1022.9 - 0.0 - Partly cloudy 10 - - - -
29/12:30pm 14.6 NW 10 15 1023.4 - 0.0 - Partly cloudy 10 - - - -
29/12:00pm 14.0 NW 11 18 1024.1 - 0.0 - Mostly cloudy 10 - - - -
29/11:30am 14.0 NW 11 14 1024.2 - 0.0 - Partly cloudy 10 - - - -
29/11:00am 14.1 NNW 12 15 1024.0 - 0.0 - Partly cloudy 10 - - - -
29/10:30am 13.7 NNW 10 14 1024.5 - 0.0 - Cloudy 10 - - - -
29/10:00am 12.8 NNW 9 11 1024.7 - 0.0 - Partly cloudy 10 - - - -
29/09:30am 12.8 NNW 9 12 1024.6 - 0.0 - Cloudy 10 - - - -
29/09:00am 12.5 NNW 9 13 1024.5 - 0.0 - Cloudy 10 - - - -
29/08:30am 12.4 NNW 8 11 1024.3 - 0.0 - Partly cloudy 10 - - - -
29/08:00am 12.3 NW 8 11 1024.5 - 0.0 - Cloudy 10 - - - -
29/07:30am 12.2 NW 6 9 1024.2 - 0.0 - Partly cloudy 10 - - - -
29/07:00am 12.0 SSW 3 6 1024.1 - 0.0 - Partly cloudy 10 - - - -
29/06:30am 12.2 NW 7 9 1024.0 - 0.0 - Partly cloudy 10 - - - -
29/06:00am 12.3 NW 7 9 1023.8 - 0.0 - Cloudy 10 - - - -
29/05:30am 12.3 NW 9 13 1023.3 - 0.0 - Cloudy 10 - - - -
29/05:00am 12.1 NW 7 9 1023.5 - 0.0 - Partly cloudy 10 - - - -
29/04:30am 12.3 NW 9 14 1023.1 - 0.0 - Partly cloudy 10 - - - -
29/04:00am 12.3 NNW 9 14 1023.0 - 0.0 - Partly cloudy 10 - - - -
29/03:30am 12.6 NNW 8 13 1023.1 - 0.0 - Partly cloudy 10 - - - -
29/03:00am 12.5 NW 9 13 1023.6 - 0.0 - Cloudy 10 - - - -
29/02:30am 12.5 NW 8 12 1023.8 - 0.0 - Partly cloudy 10 - - - -
29/02:00am 12.7 NNW 8 10 1024.1 - 0.0 - Cloudy 10 - - - -
29/01:30am 12.7 NNW 7 10 1024.2 - 0.0 - Cloudy 10 - - - -
29/01:00am 12.5 NW 7 9 1024.4 - 0.0 - Cloudy 10 - - - -
29/12:30am 12.7 NNW 7 10 1024.5 - 0.0 - Cloudy 10 - - - -
29/12:00am 12.5 NW 7 9 1024.9 - 0.0 - Cloudy 10 - - - -
 
Date/Time
CST
Temp
°C
Wind Pressure Rain since
9am
mm
Weather Cloud Vis
km
Sea
Height
m
Swell
Dir  Spd
kts
Gust
kts
hPa Trend Height
m
Period
s
Dir
28/11:30pm 12.4 NW 8 11 1024.9 - 0.0 - Cloudy 10 - - - -
28/11:00pm 12.2 NW 7 9 1025.0 - 0.0 - Cloudy 10 - - - -
28/10:30pm 11.9 WNW 6 8 1025.4 - 0.0 - Partly cloudy 10 - - - -
28/10:00pm 12.0 NW 8 11 1025.7 - 0.0 - Partly cloudy 9 - - - -
28/09:30pm 12.1 WNW 7 9 1025.6 - 0.0 - Cloudy 10 - - - -
28/09:00pm 12.1 NW 9 14 1025.4 - 0.0 - Cloudy 10 - - - -
28/08:30pm 11.8 NW 8 11 1025.4 - 0.0 - Partly cloudy 10 - - - -
28/08:00pm 11.9 NW 9 11 1025.7 - 0.0 - Partly cloudy 8 - - - -
28/07:30pm 12.0 NW 9 12 1025.8 - 0.0 - Partly cloudy 6 - - - -
28/07:00pm 12.4 NW 11 15 1026.0 - 0.0 - Partly cloudy 10 - - - -
28/06:30pm 12.5 NW 9 13 1026.0 - 0.0 - Cloudy 10 - - - -
28/06:00pm 12.5 NW 9 11 1025.9 - 0.0 - Cloudy 10 - - - -
28/05:30pm 12.3 NW 6 7 1025.8 - 0.0 - Cloudy 10 - - - -
28/05:00pm 12.0 NW 7 9 1025.7 - 0.0 - Partly cloudy 10 - - - -
28/04:30pm 12.8 WNW 10 15 1026.0 - 0.0 - Partly cloudy 10 - - - -
28/04:00pm 13.5 NW 9 12 1026.0 - 0.0 - Cloudy 10 - - - -
28/03:30pm 13.2 WNW 12 16 1026.0 - 0.0 - Partly cloudy 10 - - - -

Other Formats:

Comma delimited format used in spreadsheet applications
http://www.bom.gov.au/fwo/IDS60701/IDS60701.95807.axf

JavaScript Object Notation format (JSON) in row-major order
http://www.bom.gov.au/fwo/IDS60701/IDS60701.95807.json